Time,TemperatureF,DewpointF,PressureIn,WindDirection,WindDirectionDegrees,WindSpeedMPH,WindSpeedGustMPH,Humidity,HourlyPrecipIn,Conditions,Clouds,dailyrainin,SoftwareType,DateUTC
2013-04-05 00:00:00,34.9,33.9,29.99,SSE,161,0.0,5.0,96,0.00,,,0.00,Wunderground v.1.15,2013-04-05 04:00:00,
2013-04-05 00:05:00,34.8,33.8,29.99,SSE,160,0.0,5.0,96,0.00,,,0.00,Wunderground v.1.15,2013-04-05 04:05:00,
2013-04-05 00:10:00,34.9,33.9,29.98,SSE,160,0.0,5.0,96,0.00,,,0.00,Wunderground v.1.15,2013-04-05 04:10:00,
2013-04-05 00:15:00,34.9,33.9,29.98,SSE,159,0.0,5.0,96,0.00,,,0.00,Wunderground v.1.15,2013-04-05 04:15:00,
2013-04-05 00:25:00,34.9,33.9,29.99,SSE,159,0.0,5.0,96,0.00,,,0.00,Wunderground v.1.15,2013-04-05 04:25:00,
2013-04-05 00:30:00,34.9,33.9,29.99,SSE,159,0.0,5.0,96,0.00,,,0.00,Wunderground v.1.15,2013-04-05 04:30:00,
2013-04-05 00:35:00,34.9,33.9,29.99,SSE,159,0.0,5.0,96,0.00,,,0.00,Wunderground v.1.15,2013-04-05 04:35:00,
2013-04-05 00:40:00,34.9,33.9,29.99,SSE,159,0.0,5.0,96,0.00,,,0.00,Wunderground v.1.15,2013-04-05 04:40:00,
2013-04-05 00:45:00,34.9,33.9,29.99,SSE,159,0.0,5.0,96,0.00,,,0.00,Wunderground v.1.15,2013-04-05 04:45:00,
2013-04-05 00:50:00,34.9,33.9,29.99,SSE,159,0.0,5.0,96,0.00,,,0.00,Wunderground v.1.15,2013-04-05 04:50:00,
2013-04-05 00:55:00,34.9,33.9,29.99,SSE,159,0.0,5.0,96,0.00,,,0.00,Wunderground v.1.15,2013-04-05 04:55:00,
2013-04-05 01:00:00,34.9,33.9,29.99,SSE,159,0.0,5.0,96,0.00,,,0.00,Wunderground v.1.15,2013-04-05 05:00:00,
2013-04-05 01:05:00,34.9,33.9,29.99,SSE,159,0.0,5.0,96,0.00,,,0.00,Wunderground v.1.15,2013-04-05 05:05:00,
2013-04-05 01:10:00,34.9,33.9,29.99,SSE,159,0.0,5.0,96,0.00,,,0.00,Wunderground v.1.15,2013-04-05 05:10:00,
2013-04-05 01:15:00,34.9,33.9,29.99,SSE,159,0.0,5.0,96,0.00,,,0.00,Wunderground v.1.15,2013-04-05 05:15:00,
2013-04-05 01:25:00,34.8,33.8,29.98,ESE,113,0.0,5.0,96,0.00,,,0.00,Wunderground v.1.15,2013-04-05 05:25:00,
2013-04-05 01:30:00,34.9,33.9,29.98,SSE,153,0.0,5.0,96,0.00,,,0.00,Wunderground v.1.15,2013-04-05 05:30:00,
2013-04-05 01:35:00,34.8,33.8,29.99,SSE,153,0.0,5.0,96,0.00,,,0.00,Wunderground v.1.15,2013-04-05 05:35:00,
2013-04-05 01:40:00,34.8,33.8,29.99,SE,130,0.0,5.0,96,0.00,,,0.00,Wunderground v.1.15,2013-04-05 05:40:00,
2013-04-05 01:45:00,34.9,33.9,29.99,ESE,103,0.0,5.0,96,0.00,,,0.00,Wunderground v.1.15,2013-04-05 05:45:00,
2013-04-05 01:50:00,34.9,33.9,29.99,ESE,104,0.0,5.0,96,0.00,,,0.00,Wunderground v.1.15,2013-04-05 05:50:00,
2013-04-05 01:55:00,34.9,33.9,29.98,ESE,104,0.0,5.0,96,0.00,,,0.00,Wunderground v.1.15,2013-04-05 05:55:00,
2013-04-05 02:00:00,35.0,34.0,29.98,ESE,105,0.0,5.0,96,0.00,,,0.00,Wunderground v.1.15,2013-04-05 06:00:00,
2013-04-05 02:10:00,34.8,33.8,29.98,ESE,104,0.0,5.0,96,0.00,,,0.00,Wunderground v.1.15,2013-04-05 06:10:00,
2013-04-05 02:15:00,34.8,33.8,29.98,ESE,104,0.0,5.0,96,0.00,,,0.00,Wunderground v.1.15,2013-04-05 06:15:00,
2013-04-05 02:20:00,34.8,33.8,29.99,ESE,103,0.0,5.0,96,0.00,,,0.00,Wunderground v.1.15,2013-04-05 06:20:00,
2013-04-05 02:25:00,34.7,33.7,29.99,ESE,103,0.0,5.0,96,0.00,,,0.00,Wunderground v.1.15,2013-04-05 06:25:00,
2013-04-05 02:30:00,34.7,33.7,29.98,ESE,104,0.0,5.0,96,0.00,,,0.00,Wunderground v.1.15,2013-04-05 06:30:00,
2013-04-05 02:35:00,34.7,33.7,29.98,ESE,105,0.0,5.0,96,0.00,,,0.00,Wunderground v.1.15,2013-04-05 06:35:00,
2013-04-05 02:40:00,34.8,33.8,29.98,ESE,103,0.0,5.0,96,0.00,,,0.00,Wunderground v.1.15,2013-04-05 06:40:00,
2013-04-05 02:45:00,34.9,33.9,29.98,ESE,103,0.0,5.0,96,0.00,,,0.00,Wunderground v.1.15,2013-04-05 06:45:00,
2013-04-05 02:55:00,35.0,34.0,29.98,ESE,103,0.0,5.0,96,0.00,,,0.00,Wunderground v.1.15,2013-04-05 06:55:00,
2013-04-05 03:00:00,35.0,34.0,29.98,ESE,103,0.0,5.0,96,0.00,,,0.00,Wunderground v.1.15,2013-04-05 07:00:00,
2013-04-05 03:10:00,35.1,34.1,29.99,ESE,103,0.0,5.0,96,0.00,,,0.00,Wunderground v.1.15,2013-04-05 07:10:00,
2013-04-05 03:15:00,35.1,34.3,29.99,ESE,103,0.0,5.0,97,0.00,,,0.00,Wunderground v.1.15,2013-04-05 07:15:00,
2013-04-05 03:25:00,35.3,34.5,29.98,ESE,103,0.0,5.0,97,0.00,,,0.00,Wunderground v.1.15,2013-04-05 07:25:00,
2013-04-05 03:30:00,35.3,34.5,29.98,ESE,103,0.0,5.0,97,0.00,,,0.00,Wunderground v.1.15,2013-04-05 07:30:00,
2013-04-05 03:40:00,35.4,34.6,29.99,ESE,103,0.0,5.0,97,0.00,,,0.00,Wunderground v.1.15,2013-04-05 07:40:00,
2013-04-05 03:45:00,35.4,34.6,29.98,ESE,103,0.0,5.0,97,0.00,,,0.00,Wunderground v.1.15,2013-04-05 07:45:00,
2013-04-05 03:50:00,35.5,34.7,29.98,ESE,103,0.0,5.0,97,0.00,,,0.00,Wunderground v.1.15,2013-04-05 07:50:00,
2013-04-05 03:55:00,35.5,34.7,29.98,ESE,103,0.0,5.0,97,0.00,,,0.00,Wunderground v.1.15,2013-04-05 07:55:00,
2013-04-05 04:00:00,35.5,34.7,29.98,ESE,103,0.0,5.0,97,0.00,,,0.00,Wunderground v.1.15,2013-04-05 08:00:00,
2013-04-05 04:05:00,35.5,34.7,29.98,ESE,103,0.0,5.0,97,0.00,,,0.00,Wunderground v.1.15,2013-04-05 08:05:00,
2013-04-05 04:10:00,35.5,34.7,29.98,ESE,103,0.0,5.0,97,0.00,,,0.00,Wunderground v.1.15,2013-04-05 08:10:00,
2013-04-05 04:15:00,35.5,34.7,29.97,SW,236,0.0,5.0,97,0.00,,,0.00,Wunderground v.1.15,2013-04-05 08:15:00,
2013-04-05 04:20:00,35.6,34.8,29.97,SW,236,0.0,5.0,97,0.00,,,0.00,Wunderground v.1.15,2013-04-05 08:20:00,
2013-04-05 04:25:00,35.6,34.8,29.97,WSW,242,0.0,5.0,97,0.00,,,0.00,Wunderground v.1.15,2013-04-05 08:25:00,
2013-04-05 04:30:00,35.6,34.8,29.97,WSW,240,0.0,5.0,97,0.00,,,0.00,Wunderground v.1.15,2013-04-05 08:30:00,
2013-04-05 04:35:00,35.6,34.8,29.96,WSW,242,0.0,5.0,97,0.00,,,0.00,Wunderground v.1.15,2013-04-05 08:35:00,
2013-04-05 04:40:00,35.6,34.8,29.96,WSW,242,0.0,5.0,97,0.00,,,0.00,Wunderground v.1.15,2013-04-05 08:40:00,
2013-04-05 04:45:00,35.6,34.8,29.96,WSW,243,0.0,5.0,97,0.00,,,0.00,Wunderground v.1.15,2013-04-05 08:45:00,
2013-04-05 04:55:00,35.7,34.9,29.95,WSW,256,0.0,5.0,97,0.00,,,0.00,Wunderground v.1.15,2013-04-05 08:55:00,
2013-04-05 05:00:00,35.8,35.0,29.96,West,259,0.0,5.0,97,0.00,,,0.00,Wunderground v.1.15,2013-04-05 09:00:00,
2013-04-05 05:05:00,35.9,35.1,29.96,WSW,252,0.0,5.0,97,0.00,,,0.00,Wunderground v.1.15,2013-04-05 09:05:00,
2013-04-05 05:10:00,35.9,35.1,29.96,WSW,249,1.0,5.0,97,0.00,,,0.00,Wunderground v.1.15,2013-04-05 09:10:00,
2013-04-05 05:15:00,36.0,35.2,29.96,WSW,249,2.0,5.0,97,0.00,,,0.00,Wunderground v.1.15,2013-04-05 09:15:00,
2013-04-05 05:20:00,36.0,35.2,29.95,WSW,257,3.0,5.0,97,0.00,,,0.00,Wunderground v.1.15,2013-04-05 09:20:00,
2013-04-05 05:25:00,36.0,35.2,29.95,WSW,250,3.0,5.0,97,0.00,,,0.00,Wunderground v.1.15,2013-04-05 09:25:00,
2013-04-05 05:30:00,36.0,35.2,29.95,WSW,256,3.0,5.0,97,0.00,,,0.00,Wunderground v.1.15,2013-04-05 09:30:00,
2013-04-05 05:35:00,36.1,35.3,29.95,WSW,242,3.0,5.0,97,0.00,,,0.00,Wunderground v.1.15,2013-04-05 09:35:00,
2013-04-05 05:40:00,36.1,35.3,29.95,WSW,248,3.0,5.0,97,0.00,,,0.00,Wunderground v.1.15,2013-04-05 09:40:00,
2013-04-05 05:50:00,36.1,35.3,29.95,West,266,3.0,3.0,97,0.00,,,0.00,Wunderground v.1.15,2013-04-05 09:50:00,
2013-04-05 06:00:00,36.3,35.5,29.95,West,267,3.0,3.0,97,0.00,,,0.00,Wunderground v.1.15,2013-04-05 10:00:00,
2013-04-05 06:05:00,36.3,35.5,29.95,WSW,249,2.0,5.0,97,0.00,,,0.00,Wunderground v.1.15,2013-04-05 10:05:00,
2013-04-05 06:10:00,36.3,35.5,29.95,West,262,2.0,5.0,97,0.00,,,0.00,Wunderground v.1.15,2013-04-05 10:10:00,
2013-04-05 06:15:00,36.3,35.5,29.95,SW,232,3.0,5.0,97,0.00,,,0.00,Wunderground v.1.15,2013-04-05 10:15:00,
2013-04-05 06:20:00,36.4,35.6,29.94,WSW,257,3.0,5.0,97,0.00,,,0.00,Wunderground v.1.15,2013-04-05 10:20:00,
2013-04-05 06:25:00,36.4,35.6,29.94,WSW,246,2.0,5.0,97,0.00,,,0.00,Wunderground v.1.15,2013-04-05 10:25:00,
2013-04-05 06:30:00,36.3,35.5,29.94,WSW,253,3.0,3.0,97,0.00,,,0.00,Wunderground v.1.15,2013-04-05 10:30:00,
2013-04-05 06:35:00,36.3,35.5,29.95,WSW,256,3.0,5.0,97,0.00,,,0.00,Wunderground v.1.15,2013-04-05 10:35:00,
2013-04-05 06:40:00,36.3,35.5,29.95,West,264,3.0,3.0,97,0.00,,,0.00,Wunderground v.1.15,2013-04-05 10:40:00,
2013-04-05 06:45:00,36.3,35.5,29.96,West,271,3.0,5.0,97,0.00,,,0.00,Wunderground v.1.15,2013-04-05 10:45:00,
2013-04-05 06:50:00,36.3,35.5,29.96,WSW,249,3.0,5.0,97,0.00,,,0.00,Wunderground v.1.15,2013-04-05 10:50:00,
2013-04-05 06:55:00,36.3,35.5,29.97,West,269,3.0,5.0,97,0.00,,,0.00,Wunderground v.1.15,2013-04-05 10:55:00,
2013-04-05 07:00:00,36.4,35.6,29.97,WSW,249,3.0,5.0,97,0.00,,,0.00,Wunderground v.1.15,2013-04-05 11:00:00,
2013-04-05 07:05:00,36.4,35.6,29.97,WSW,250,3.0,5.0,97,0.00,,,0.00,Wunderground v.1.15,2013-04-05 11:05:00,
2013-04-05 07:10:00,36.4,35.6,29.97,WSW,252,4.0,5.0,97,0.00,,,0.00,Wunderground v.1.15,2013-04-05 11:10:00,
2013-04-05 07:15:00,36.4,35.6,29.97,WSW,245,4.0,5.0,97,0.00,,,0.00,Wunderground v.1.15,2013-04-05 11:15:00,
2013-04-05 07:20:00,36.4,35.6,29.98,WSW,248,4.0,5.0,97,0.00,,,0.00,Wunderground v.1.15,2013-04-05 11:20:00,
2013-04-05 07:25:00,36.4,35.6,29.98,SW,236,4.0,5.0,97,0.00,,,0.00,Wunderground v.1.15,2013-04-05 11:25:00,
2013-04-05 07:30:00,36.4,35.6,29.99,SW,219,3.0,3.0,97,0.00,,,0.00,Wunderground v.1.15,2013-04-05 11:30:00,
2013-04-05 07:35:00,36.4,35.6,30.00,SE,138,1.0,5.0,97,0.00,,,0.00,Wunderground v.1.15,2013-04-05 11:35:00,
2013-04-05 07:40:00,36.5,35.7,30.00,ESE,112,1.0,5.0,97,0.00,,,0.00,Wunderground v.1.15,2013-04-05 11:40:00,
2013-04-05 07:45:00,36.5,35.7,30.00,ESE,107,0.0,5.0,97,0.00,,,0.00,Wunderground v.1.15,2013-04-05 11:45:00,
2013-04-05 07:55:00,36.5,35.7,30.01,SW,226,0.0,5.0,97,0.00,,,0.00,Wunderground v.1.15,2013-04-05 11:55:00,
2013-04-05 08:00:00,36.5,35.7,30.02,SW,226,0.0,5.0,97,0.00,,,0.00,Wunderground v.1.15,2013-04-05 12:00:00,
2013-04-05 08:05:00,36.4,35.6,30.02,SSW,208,0.0,5.0,97,0.00,,,0.00,Wunderground v.1.15,2013-04-05 12:05:00,
2013-04-05 08:15:00,36.5,35.7,30.03,ESE,122,1.0,5.0,97,0.00,,,0.00,Wunderground v.1.15,2013-04-05 12:15:00,
2013-04-05 08:20:00,36.6,35.8,30.03,ESE,111,0.0,5.0,97,0.00,,,0.00,Wunderground v.1.15,2013-04-05 12:20:00,
2013-04-05 08:25:00,36.6,35.8,30.03,WSW,239,0.0,5.0,97,0.00,,,0.00,Wunderground v.1.15,2013-04-05 12:25:00,
2013-04-05 08:30:00,36.6,35.8,30.03,SE,134,0.0,5.0,97,0.00,,,0.00,Wunderground v.1.15,2013-04-05 12:30:00,
2013-04-05 08:35:00,36.8,36.0,30.03,SE,145,0.0,5.0,97,0.00,,,0.00,Wunderground v.1.15,2013-04-05 12:35:00,
2013-04-05 08:40:00,36.8,36.0,30.03,WSW,242,0.0,5.0,97,0.00,,,0.00,Wunderground v.1.15,2013-04-05 12:40:00,
2013-04-05 08:45:00,36.8,36.0,30.04,SSW,201,0.0,5.0,97,0.00,,,0.00,Wunderground v.1.15,2013-04-05 12:45:00,
2013-04-05 08:50:00,36.8,36.0,30.04,SSW,193,0.0,5.0,97,0.00,,,0.00,Wunderground v.1.15,2013-04-05 12:50:00,
2013-04-05 08:55:00,36.9,36.1,30.04,SSW,198,0.0,5.0,97,0.00,,,0.00,Wunderground v.1.15,2013-04-05 12:55:00,
2013-04-05 09:00:00,36.9,36.1,30.04,WSW,248,0.0,5.0,97,0.00,,,0.00,Wunderground v.1.15,2013-04-05 13:00:00,
2013-04-05 09:05:00,36.9,36.1,30.04,SSW,211,0.0,5.0,97,0.00,,,0.00,Wunderground v.1.15,2013-04-05 13:05:00,
2013-04-05 09:10:00,36.9,36.1,30.04,WSW,250,0.0,5.0,97,0.00,,,0.00,Wunderground v.1.15,2013-04-05 13:10:00,
2013-04-05 09:15:00,37.1,36.3,30.04,South,183,0.0,5.0,97,0.00,,,0.00,Wunderground v.1.15,2013-04-05 13:15:00,
2013-04-05 09:20:00,37.1,36.3,30.04,SW,225,0.0,5.0,97,0.00,,,0.00,Wunderground v.1.15,2013-04-05 13:20:00,
2013-04-05 09:25:00,37.1,36.3,30.04,South,184,0.0,5.0,97,0.00,,,0.00,Wunderground v.1.15,2013-04-05 13:25:00,
2013-04-05 09:30:00,37.2,36.4,30.04,SSE,167,0.0,5.0,97,0.00,,,0.00,Wunderground v.1.15,2013-04-05 13:30:00,
2013-04-05 09:35:00,37.2,36.4,30.05,South,173,0.0,5.0,97,0.00,,,0.00,Wunderground v.1.15,2013-04-05 13:35:00,
2013-04-05 09:40:00,37.3,36.5,30.05,SW,215,0.0,5.0,97,0.00,,,0.00,Wunderground v.1.15,2013-04-05 13:40:00,
2013-04-05 09:45:00,37.2,36.4,30.05,SW,236,0.0,5.0,97,0.00,,,0.00,Wunderground v.1.15,2013-04-05 13:45:00,
2013-04-05 09:50:00,37.3,36.5,30.05,WSW,239,0.0,5.0,97,0.00,,,0.00,Wunderground v.1.15,2013-04-05 13:50:00,
2013-04-05 09:55:00,37.3,36.5,30.05,West,266,0.0,5.0,97,0.00,,,0.00,Wunderground v.1.15,2013-04-05 13:55:00,
2013-04-05 10:00:00,37.3,36.5,30.05,WSW,243,1.0,5.0,97,0.00,,,0.00,Wunderground v.1.15,2013-04-05 14:00:00,
2013-04-05 10:05:00,37.4,36.6,30.05,WSW,239,2.0,5.0,97,0.00,,,0.00,Wunderground v.1.15,2013-04-05 14:05:00,
2013-04-05 10:10:00,37.6,36.8,30.05,WSW,238,2.0,5.0,97,0.00,,,0.00,Wunderground v.1.15,2013-04-05 14:10:00,
2013-04-05 10:15:00,37.7,36.9,30.04,SSW,212,2.0,5.0,97,0.00,,,0.00,Wunderground v.1.15,2013-04-05 14:15:00,
2013-04-05 10:20:00,37.9,37.1,30.05,SSW,201,2.0,2.0,97,0.00,,,0.00,Wunderground v.1.15,2013-04-05 14:20:00,
2013-04-05 10:25:00,38.0,37.2,30.05,WSW,254,2.0,3.0,97,0.00,,,0.00,Wunderground v.1.15,2013-04-05 14:25:00,
2013-04-05 10:30:00,38.3,37.5,30.05,WSW,243,2.0,5.0,97,0.00,,,0.00,Wunderground v.1.15,2013-04-05 14:30:00,
2013-04-05 10:35:00,38.5,37.7,30.05,WSW,248,4.0,5.0,97,0.00,,,0.00,Wunderground v.1.15,2013-04-05 14:35:00,
2013-04-05 10:40:00,38.6,37.8,30.05,WSW,252,4.0,5.0,97,0.00,,,0.00,Wunderground v.1.15,2013-04-05 14:40:00,
2013-04-05 10:45:00,38.5,37.7,30.05,SW,222,4.0,5.0,97,0.00,,,0.00,Wunderground v.1.15,2013-04-05 14:45:00,
2013-04-05 10:50:00,38.6,37.8,30.05,SW,232,3.0,3.0,97,0.00,,,0.00,Wunderground v.1.15,2013-04-05 14:50:00,
2013-04-05 10:55:00,38.7,37.9,30.06,SW,214,2.0,5.0,97,0.00,,,0.00,Wunderground v.1.15,2013-04-05 14:55:00,
2013-04-05 11:05:00,38.9,38.1,30.06,SSW,212,2.0,5.0,97,0.00,,,0.00,Wunderground v.1.15,2013-04-05 15:05:00,
2013-04-05 11:15:00,39.2,38.4,30.06,SSE,154,2.0,5.0,97,0.00,,,0.00,Wunderground v.1.15,2013-04-05 15:15:00,
2013-04-05 11:20:00,39.4,38.6,30.06,SSW,212,2.0,2.0,97,0.00,,,0.00,Wunderground v.1.15,2013-04-05 15:20:00,
2013-04-05 11:25:00,39.6,38.8,30.06,SSW,207,2.0,5.0,97,0.00,,,0.00,Wunderground v.1.15,2013-04-05 15:25:00,
2013-04-05 11:30:00,39.9,39.1,30.06,SW,236,2.0,5.0,97,0.00,,,0.00,Wunderground v.1.15,2013-04-05 15:30:00,
2013-04-05 11:35:00,40.4,39.6,30.06,WSW,252,2.0,5.0,97,0.00,,,0.00,Wunderground v.1.15,2013-04-05 15:35:00,
2013-04-05 11:40:00,40.7,39.6,30.06,SW,236,3.0,5.0,96,0.00,,,0.00,Wunderground v.1.15,2013-04-05 15:40:00,
2013-04-05 11:50:00,41.2,39.9,30.06,SE,145,2.0,5.0,95,0.00,,,0.00,Wunderground v.1.15,2013-04-05 15:50:00,
2013-04-05 11:55:00,41.8,40.5,30.06,SW,236,2.0,5.0,95,0.00,,,0.00,Wunderground v.1.15,2013-04-05 15:55:00,
2013-04-05 12:05:00,43.0,41.4,30.06,SSW,211,2.0,5.0,94,0.00,,,0.00,Wunderground v.1.15,2013-04-05 16:05:00,
2013-04-05 12:10:00,43.2,40.5,30.07,WSW,239,2.0,5.0,90,0.00,,,0.00,Wunderground v.1.15,2013-04-05 16:10:00,
2013-04-05 12:15:00,42.8,40.4,30.07,West,269,3.0,5.0,91,0.00,,,0.00,Wunderground v.1.15,2013-04-05 16:15:00,
2013-04-05 12:20:00,42.8,40.1,30.06,WSW,250,2.0,5.0,90,0.00,,,0.00,Wunderground v.1.15,2013-04-05 16:20:00,
2013-04-05 12:25:00,42.6,39.9,30.06,WNW,290,2.0,5.0,90,0.00,,,0.00,Wunderground v.1.15,2013-04-05 16:25:00,
2013-04-05 12:30:00,42.9,40.5,30.06,SW,222,2.0,2.0,91,0.00,,,0.00,Wunderground v.1.15,2013-04-05 16:30:00,
2013-04-05 12:40:00,43.7,40.7,30.06,SSW,208,2.0,5.0,89,0.00,,,0.00,Wunderground v.1.15,2013-04-05 16:40:00,
2013-04-05 12:50:00,44.2,41.2,30.05,SSW,200,2.0,5.0,89,0.00,,,0.00,Wunderground v.1.15,2013-04-05 16:50:00,
2013-04-05 12:55:00,44.7,41.1,30.05,WSW,253,2.0,5.0,87,0.00,,,0.00,Wunderground v.1.15,2013-04-05 16:55:00,
2013-04-05 13:00:00,44.8,40.9,30.05,SW,222,2.0,2.0,86,0.00,,,0.00,Wunderground v.1.15,2013-04-05 17:00:00,
2013-04-05 13:05:00,45.3,41.7,30.06,SW,231,2.0,5.0,87,0.00,,,0.00,Wunderground v.1.15,2013-04-05 17:05:00,
2013-04-05 13:10:00,45.6,41.7,30.06,SW,221,2.0,5.0,86,0.00,,,0.00,Wunderground v.1.15,2013-04-05 17:10:00,
2013-04-05 13:15:00,45.9,41.6,30.05,SSW,195,2.0,5.0,85,0.00,,,0.00,Wunderground v.1.15,2013-04-05 17:15:00,
2013-04-05 13:20:00,45.9,41.3,30.05,SSW,204,3.0,3.0,84,0.00,,,0.00,Wunderground v.1.15,2013-04-05 17:20:00,
2013-04-05 13:25:00,46.0,41.4,30.05,SE,131,3.0,5.0,84,0.00,,,0.00,Wunderground v.1.15,2013-04-05 17:25:00,
2013-04-05 13:30:00,46.3,41.7,30.04,SSE,152,2.0,5.0,84,0.00,,,0.00,Wunderground v.1.15,2013-04-05 17:30:00,
2013-04-05 13:35:00,46.5,41.6,30.04,SW,231,2.0,5.0,83,0.00,,,0.00,Wunderground v.1.15,2013-04-05 17:35:00,
2013-04-05 13:40:00,46.6,41.7,30.04,WSW,253,3.0,5.0,83,0.00,,,0.00,Wunderground v.1.15,2013-04-05 17:40:00,
2013-04-05 13:45:00,46.9,41.7,30.03,SSW,193,3.0,5.0,82,0.00,,,0.00,Wunderground v.1.15,2013-04-05 17:45:00,
2013-04-05 13:55:00,49.0,42.8,30.03,SSW,210,3.0,5.0,79,0.00,,,0.00,Wunderground v.1.15,2013-04-05 17:55:00,
2013-04-05 14:00:00,49.8,43.2,30.03,SSW,212,3.0,5.0,78,0.00,,,0.00,Wunderground v.1.15,2013-04-05 18:00:00,
2013-04-05 14:05:00,50.4,43.8,30.03,SSE,160,4.0,6.0,78,0.00,,,0.00,Wunderground v.1.15,2013-04-05 18:05:00,
2013-04-05 14:10:00,51.0,42.3,30.03,WSW,243,3.0,5.0,72,0.00,,,0.00,Wunderground v.1.15,2013-04-05 18:10:00,
2013-04-05 14:15:00,50.7,42.4,30.03,ESE,106,3.0,7.0,73,0.00,,,0.00,Wunderground v.1.15,2013-04-05 18:15:00,
2013-04-05 14:25:00,51.1,42.7,30.03,South,191,3.0,5.0,73,0.00,,,0.00,Wunderground v.1.15,2013-04-05 18:25:00,
2013-04-05 14:30:00,51.5,41.7,30.02,ESE,108,3.0,8.0,69,0.00,,,0.00,Wunderground v.1.15,2013-04-05 18:30:00,
2013-04-05 14:40:00,52.4,43.3,30.02,SW,215,3.0,3.0,71,0.00,,,0.00,Wunderground v.1.15,2013-04-05 18:40:00,
2013-04-05 14:45:00,52.5,42.2,30.02,SSW,210,2.0,5.0,68,0.00,,,0.00,Wunderground v.1.15,2013-04-05 18:45:00,
2013-04-05 14:50:00,52.8,42.5,30.02,SSW,208,2.0,5.0,68,0.00,,,0.00,Wunderground v.1.15,2013-04-05 18:50:00,
2013-04-05 14:55:00,53.3,43.0,30.02,SSW,212,3.0,5.0,68,0.00,,,0.00,Wunderground v.1.15,2013-04-05 18:55:00,
2013-04-05 15:00:00,53.0,41.9,30.02,SSW,197,3.0,5.0,66,0.00,,,0.00,Wunderground v.1.15,2013-04-05 19:00:00,
2013-04-05 15:05:00,53.2,42.5,30.02,SSE,166,3.0,5.0,67,0.00,,,0.00,Wunderground v.1.15,2013-04-05 19:05:00,
2013-04-05 15:10:00,53.0,41.5,30.02,South,183,3.0,5.0,65,0.00,,,0.00,Wunderground v.1.15,2013-04-05 19:10:00,
2013-04-05 15:20:00,53.1,40.8,30.02,WSW,243,4.0,5.0,63,0.00,,,0.00,Wunderground v.1.15,2013-04-05 19:20:00,
2013-04-05 15:30:00,53.4,41.9,30.02,SW,217,3.0,3.0,65,0.00,,,0.00,Wunderground v.1.15,2013-04-05 19:30:00,
2013-04-05 15:35:00,53.3,41.4,30.02,SW,226,3.0,5.0,64,0.00,,,0.00,Wunderground v.1.15,2013-04-05 19:35:00,
2013-04-05 15:45:00,53.2,40.5,30.02,SE,141,4.0,5.0,62,0.00,,,0.00,Wunderground v.1.15,2013-04-05 19:45:00,
2013-04-05 15:50:00,53.3,40.6,30.01,SSE,158,3.0,3.0,62,0.00,,,0.00,Wunderground v.1.15,2013-04-05 19:50:00,
2013-04-05 15:55:00,53.4,39.9,30.01,SW,225,3.0,4.0,60,0.00,,,0.00,Wunderground v.1.15,2013-04-05 19:55:00,
2013-04-05 16:00:00,53.4,40.3,30.01,SSW,197,3.0,5.0,61,0.00,,,0.00,Wunderground v.1.15,2013-04-05 20:00:00,
2013-04-05 16:05:00,53.7,39.7,30.01,South,173,3.0,5.0,59,0.00,,,0.00,Wunderground v.1.15,2013-04-05 20:05:00,
2013-04-05 16:15:00,53.8,38.5,30.01,SW,219,4.0,5.0,56,0.00,,,0.00,Wunderground v.1.15,2013-04-05 20:15:00,
2013-04-05 16:20:00,53.6,37.8,30.01,SSE,165,4.0,4.0,55,0.00,,,0.00,Wunderground v.1.15,2013-04-05 20:20:00,
2013-04-05 16:25:00,53.7,37.9,30.01,SSE,160,4.0,5.0,55,0.00,,,0.00,Wunderground v.1.15,2013-04-05 20:25:00,
2013-04-05 16:30:00,53.7,37.4,30.01,WSW,248,3.0,5.0,54,0.00,,,0.00,Wunderground v.1.15,2013-04-05 20:30:00,
2013-04-05 16:35:00,53.7,37.4,30.01,SSW,211,3.0,5.0,54,0.00,,,0.00,Wunderground v.1.15,2013-04-05 20:35:00,
2013-04-05 16:40:00,53.8,38.0,30.01,WSW,256,3.0,5.0,55,0.00,,,0.00,Wunderground v.1.15,2013-04-05 20:40:00,
2013-04-05 16:45:00,53.7,37.0,30.01,SSW,204,3.0,5.0,53,0.00,,,0.00,Wunderground v.1.15,2013-04-05 20:45:00,
2013-04-05 16:50:00,53.5,36.3,30.01,SSE,158,3.0,5.0,52,0.00,,,0.00,Wunderground v.1.15,2013-04-05 20:50:00,
2013-04-05 16:55:00,53.4,36.2,30.01,SW,221,3.0,5.0,52,0.00,,,0.00,Wunderground v.1.15,2013-04-05 20:55:00,
2013-04-05 17:00:00,53.0,35.8,30.02,SSW,194,3.0,5.0,52,0.00,,,0.00,Wunderground v.1.15,2013-04-05 21:00:00,
2013-04-05 17:05:00,53.1,35.9,30.01,WSW,239,3.0,5.0,52,0.00,,,0.00,Wunderground v.1.15,2013-04-05 21:05:00,
2013-04-05 17:10:00,52.7,36.0,30.02,WSW,239,3.0,3.0,53,0.00,,,0.00,Wunderground v.1.15,2013-04-05 21:10:00,
2013-04-05 17:15:00,52.6,35.9,30.02,West,274,3.0,5.0,53,0.00,,,0.00,Wunderground v.1.15,2013-04-05 21:15:00,
2013-04-05 17:25:00,52.5,36.3,30.02,WSW,256,2.0,5.0,54,0.00,,,0.00,Wunderground v.1.15,2013-04-05 21:25:00,
2013-04-05 17:30:00,52.5,37.2,30.02,SSW,203,2.0,5.0,56,0.00,,,0.00,Wunderground v.1.15,2013-04-05 21:30:00,
2013-04-05 17:35:00,52.5,36.3,30.02,SSW,207,3.0,5.0,54,0.00,,,0.00,Wunderground v.1.15,2013-04-05 21:35:00,
2013-04-05 17:40:00,52.4,36.7,30.02,SW,231,3.0,5.0,55,0.00,,,0.00,Wunderground v.1.15,2013-04-05 21:40:00,
2013-04-05 17:50:00,52.2,36.5,30.03,WSW,239,3.0,5.0,55,0.00,,,0.00,Wunderground v.1.15,2013-04-05 21:50:00,
2013-04-05 17:55:00,52.2,36.5,30.02,SW,224,3.0,5.0,55,0.00,,,0.00,Wunderground v.1.15,2013-04-05 21:55:00,
2013-04-05 18:05:00,52.2,37.0,30.03,SSW,207,3.0,5.0,56,0.00,,,0.00,Wunderground v.1.15,2013-04-05 22:05:00,
2013-04-05 18:10:00,52.1,37.3,30.03,West,280,3.0,3.0,57,0.00,,,0.00,Wunderground v.1.15,2013-04-05 22:10:00,
2013-04-05 18:15:00,52.0,36.8,30.03,SW,227,3.0,5.0,56,0.00,,,0.00,Wunderground v.1.15,2013-04-05 22:15:00,
2013-04-05 18:25:00,52.0,36.3,30.03,WSW,242,3.0,5.0,55,0.00,,,0.00,Wunderground v.1.15,2013-04-05 22:25:00,
2013-04-05 18:30:00,51.8,36.6,30.03,WSW,246,2.0,5.0,56,0.00,,,0.00,Wunderground v.1.15,2013-04-05 22:30:00,
2013-04-05 18:40:00,51.5,36.8,30.04,SW,231,2.0,5.0,57,0.00,,,0.00,Wunderground v.1.15,2013-04-05 22:40:00,
2013-04-05 18:45:00,51.4,37.1,30.03,SW,236,2.0,5.0,58,0.00,,,0.00,Wunderground v.1.15,2013-04-05 22:45:00,
2013-04-05 18:55:00,51.0,37.2,30.04,West,262,2.0,5.0,59,0.00,,,0.00,Wunderground v.1.15,2013-04-05 22:55:00,
2013-04-05 19:00:00,50.8,37.0,30.03,SW,226,2.0,5.0,59,0.00,,,0.00,Wunderground v.1.15,2013-04-05 23:00:00,
2013-04-05 19:05:00,50.6,36.4,30.04,WSW,256,2.0,5.0,58,0.00,,,0.00,Wunderground v.1.15,2013-04-05 23:05:00,
2013-04-05 19:10:00,50.3,37.4,30.03,West,266,2.0,5.0,61,0.00,,,0.00,Wunderground v.1.15,2013-04-05 23:10:00,
2013-04-05 19:15:00,49.9,37.0,30.03,WSW,250,2.0,5.0,61,0.00,,,0.00,Wunderground v.1.15,2013-04-05 23:15:00,
2013-04-05 19:20:00,49.7,36.8,30.04,West,262,2.0,5.0,61,0.00,,,0.00,Wunderground v.1.15,2013-04-05 23:20:00,
2013-04-05 19:25:00,49.3,36.8,30.04,WSW,239,2.0,5.0,62,0.00,,,0.00,Wunderground v.1.15,2013-04-05 23:25:00,
2013-04-05 19:30:00,49.2,36.7,30.04,West,280,2.0,2.0,62,0.00,,,0.00,Wunderground v.1.15,2013-04-05 23:30:00,
2013-04-05 19:35:00,48.9,36.9,30.04,WSW,242,2.0,5.0,63,0.00,,,0.00,Wunderground v.1.15,2013-04-05 23:35:00,
2013-04-05 19:40:00,48.5,37.3,30.05,West,281,1.0,5.0,65,0.00,,,0.00,Wunderground v.1.15,2013-04-05 23:40:00,
2013-04-05 19:45:00,48.3,37.1,30.05,WSW,240,1.0,5.0,65,0.00,,,0.00,Wunderground v.1.15,2013-04-05 23:45:00,
2013-04-05 19:55:00,47.8,37.4,30.05,West,278,2.0,5.0,67,0.00,,,0.00,Wunderground v.1.15,2013-04-05 23:55:00,
2013-04-05 20:05:00,47.4,37.0,30.06,West,273,1.0,5.0,67,0.00,,,0.00,Wunderground v.1.15,2013-04-06 00:05:00,
2013-04-05 20:10:00,47.1,36.7,30.06,West,281,1.0,1.0,67,0.00,,,0.00,Wunderground v.1.15,2013-04-06 00:10:00,
2013-04-05 20:20:00,46.5,36.5,30.06,NE,40,0.0,5.0,68,0.00,,,0.00,Wunderground v.1.15,2013-04-06 00:20:00,
2013-04-05 20:25:00,46.3,36.7,30.07,NNE,32,0.0,5.0,69,0.00,,,0.00,Wunderground v.1.15,2013-04-06 00:25:00,
2013-04-05 20:30:00,46.0,36.4,30.07,NNE,32,0.0,5.0,69,0.00,,,0.00,Wunderground v.1.15,2013-04-06 00:30:00,
2013-04-05 20:40:00,45.7,36.5,30.07,ESE,115,0.0,5.0,70,0.00,,,0.00,Wunderground v.1.15,2013-04-06 00:40:00,
2013-04-05 20:45:00,45.7,36.1,30.07,ESE,114,0.0,5.0,69,0.00,,,0.00,Wunderground v.1.15,2013-04-06 00:45:00,
2013-04-05 20:50:00,45.8,36.2,30.07,ESE,117,1.0,1.0,69,0.00,,,0.00,Wunderground v.1.15,2013-04-06 00:50:00,
2013-04-05 20:55:00,45.8,35.8,30.08,NNE,24,1.0,5.0,68,0.00,,,0.00,Wunderground v.1.15,2013-04-06 00:55:00,
2013-04-05 21:05:00,45.3,35.7,30.08,NNE,24,0.0,5.0,69,0.00,,,0.00,Wunderground v.1.15,2013-04-06 01:05:00,
2013-04-05 21:10:00,45.1,35.5,30.08,NNE,24,0.0,5.0,69,0.00,,,0.00,Wunderground v.1.15,2013-04-06 01:10:00,
2013-04-05 21:15:00,45.0,35.4,30.09,NNE,24,0.0,5.0,69,0.00,,,0.00,Wunderground v.1.15,2013-04-06 01:15:00,
2013-04-05 21:20:00,44.9,35.3,30.09,NNE,25,0.0,5.0,69,0.00,,,0.00,Wunderground v.1.15,2013-04-06 01:20:00,
2013-04-05 21:25:00,44.7,35.5,30.09,NNE,24,0.0,5.0,70,0.00,,,0.00,Wunderground v.1.15,2013-04-06 01:25:00,
2013-04-05 21:35:00,44.5,35.3,30.09,NNE,25,0.0,5.0,70,0.00,,,0.00,Wunderground v.1.15,2013-04-06 01:35:00,
2013-04-05 21:40:00,44.4,35.2,30.10,NNE,25,0.0,5.0,70,0.00,,,0.00,Wunderground v.1.15,2013-04-06 01:40:00,
2013-04-05 21:45:00,44.4,35.2,30.10,NNE,24,0.0,5.0,70,0.00,,,0.00,Wunderground v.1.15,2013-04-06 01:45:00,
2013-04-05 21:50:00,44.4,35.2,30.10,NNE,25,0.0,5.0,70,0.00,,,0.00,Wunderground v.1.15,2013-04-06 01:50:00,
2013-04-05 21:55:00,44.2,35.0,30.10,NNE,24,0.0,5.0,70,0.00,,,0.00,Wunderground v.1.15,2013-04-06 01:55:00,
2013-04-05 22:00:00,44.0,34.8,30.10,NNE,25,0.0,5.0,70,0.00,,,0.00,Wunderground v.1.15,2013-04-06 02:00:00,
2013-04-05 22:05:00,44.0,34.8,30.11,NNE,24,0.0,5.0,70,0.00,,,0.00,Wunderground v.1.15,2013-04-06 02:05:00,
2013-04-05 22:10:00,44.0,34.8,30.11,NNE,25,0.0,5.0,70,0.00,,,0.00,Wunderground v.1.15,2013-04-06 02:10:00,
2013-04-05 22:15:00,44.2,35.0,30.10,NNE,25,0.0,5.0,70,0.00,,,0.00,Wunderground v.1.15,2013-04-06 02:15:00,
2013-04-05 22:25:00,44.8,35.2,30.11,NNE,24,0.0,5.0,69,0.00,,,0.00,Wunderground v.1.15,2013-04-06 02:25:00,
2013-04-05 22:30:00,44.8,35.2,30.11,NNE,25,0.0,5.0,69,0.00,,,0.00,Wunderground v.1.15,2013-04-06 02:30:00,
2013-04-05 22:40:00,44.9,35.3,30.11,NNE,24,0.0,5.0,69,0.00,,,0.00,Wunderground v.1.15,2013-04-06 02:40:00,
2013-04-05 22:45:00,45.1,35.2,30.11,North,1,0.0,5.0,68,0.00,,,0.00,Wunderground v.1.15,2013-04-06 02:45:00,
2013-04-05 22:50:00,45.5,35.5,30.11,North,360,1.0,5.0,68,0.00,,,0.00,Wunderground v.1.15,2013-04-06 02:50:00,
2013-04-05 23:00:00,45.4,35.5,30.11,North,360,0.0,5.0,68,0.00,,,0.00,Wunderground v.1.15,2013-04-06 03:00:00,
2013-04-05 23:05:00,45.3,35.4,30.11,North,360,1.0,5.0,68,0.00,,,0.00,Wunderground v.1.15,2013-04-06 03:05:00,
2013-04-05 23:15:00,45.0,35.1,30.11,North,360,0.0,5.0,68,0.00,,,0.00,Wunderground v.1.15,2013-04-06 03:15:00,
2013-04-05 23:20:00,44.8,34.9,30.11,North,360,0.0,5.0,68,0.00,,,0.00,Wunderground v.1.15,2013-04-06 03:20:00,
2013-04-05 23:25:00,44.7,34.8,30.11,North,360,0.0,5.0,68,0.00,,,0.00,Wunderground v.1.15,2013-04-06 03:25:00,
2013-04-05 23:35:00,44.9,35.0,30.11,North,1,0.0,5.0,68,0.00,,,0.00,Wunderground v.1.15,2013-04-06 03:35:00,
2013-04-05 23:40:00,44.8,35.2,30.10,North,360,0.0,5.0,69,0.00,,,0.00,Wunderground v.1.15,2013-04-06 03:40:00,
2013-04-05 23:45:00,44.5,35.0,30.10,North,360,0.0,5.0,69,0.00,,,0.00,Wunderground v.1.15,2013-04-06 03:45:00,
2013-04-05 23:50:00,44.4,34.9,30.10,North,360,0.0,5.0,69,0.00,,,0.00,Wunderground v.1.15,2013-04-06 03:50:00,